Hauptseite
METAR-TAF:

METAR-TAF

Flughäfen :

Orange County Airport

Montgomery, New York, Vereinigte Staaten

Breite: 41-30-33N, Länge: 074-15-54W, Höhe: 111 m

Beobachtung

Neuester Wetterbericht von vor 51 Minuten, um 23:54 UTC
Wind 9 kt aus West
Temperatur -1°C
Luftfeuchtigkeit 54%
Luftdruck 1026 hPa
Sichtweite: 16.1 km
Himmel klar

METAR: KMGJ 112354Z AUTO 26009KT 10SM CLR M01/M09 A3030 RMK AO2 SLP264 T10061089 10011 21006 53024

Zeit: 19:45 (00:45 UTC)


TAF: fehlend

Wetterbeobachtungen und Prognosen von mehr als 4000 Flughäfen (METAR und TAF Bericht).

Die verfügbaren Stationen werden durch gelbe und rote Markierungen auf der Karte dargestellt.

Führen Sie die Maus auf sie, um den Namen der Station zu sehen.

Darauf klicken, um die Beobachtung von Wetterbeobachtungen und Prognosen zu sehen.

Um die Karte zu ändern : klicken Sie auf den grünen Tasten mit einem schwarzen Kreuz Zum Vergrößern, auf den grünen Button mit einem Gedankenstrich zu verkleinern, oder auf die grünen Pfeile für benachbarte Karten.


METAR-TAF: